sensor_id;sensor_type;location;lat;lon;timestamp;P1;durP1;ratioP1;P2;durP2;ratioP2
22794;SDS011;11564;50.920;11.612;2022-08-01T00:00:24;4.73;;;3.50;;
22794;SDS011;11564;50.920;11.612;2022-08-01T00:02:50;3.30;;;3.10;;
22794;SDS011;11564;50.920;11.612;2022-08-01T00:05:16;4.87;;;4.10;;
22794;SDS011;11564;50.920;11.612;2022-08-01T00:07:42;4.33;;;4.03;;
22794;SDS011;11564;50.920;11.612;2022-08-01T00:10:08;6.77;;;3.73;;
22794;SDS011;11564;50.920;11.612;2022-08-01T00:12:36;3.83;;;3.37;;
22794;SDS011;11564;50.920;11.612;2022-08-01T00:15:02;3.90;;;3.60;;
22794;SDS011;11564;50.920;11.612;2022-08-01T00:17:29;3.20;;;3.10;;
22794;SDS011;11564;50.920;11.612;2022-08-01T00:19:54;4.10;;;3.60;;
22794;SDS011;11564;50.920;11.612;2022-08-01T00:22:20;3.80;;;3.60;;
22794;SDS011;11564;50.920;11.612;2022-08-01T00:24:45;3.87;;;3.50;;
22794;SDS011;11564;50.920;11.612;2022-08-01T00:27:11;3.73;;;3.47;;
22794;SDS011;11564;50.920;11.612;2022-08-01T00:29:37;4.53;;;3.77;;
22794;SDS011;11564;50.920;11.612;2022-08-01T00:32:02;4.60;;;4.00;;
22794;SDS011;11564;50.920;11.612;2022-08-01T00:34:28;4.43;;;3.70;;
22794;SDS011;11564;50.920;11.612;2022-08-01T00:36:54;6.23;;;4.37;;
22794;SDS011;11564;50.920;11.612;2022-08-01T00:39:20;3.83;;;3.57;;
22794;SDS011;11564;50.920;11.612;2022-08-01T00:41:45;4.63;;;4.23;;
22794;SDS011;11564;50.920;11.612;2022-08-01T00:44:11;11.30;;;3.67;;
22794;SDS011;11564;50.920;11.612;2022-08-01T00:46:36;9.07;;;4.47;;
22794;SDS011;11564;50.920;11.612;2022-08-01T00:49:02;4.10;;;3.90;;
22794;SDS011;11564;50.920;11.612;2022-08-01T00:51:28;4.80;;;4.50;;
22794;SDS011;11564;50.920;11.612;2022-08-01T00:53:54;3.67;;;3.47;;
22794;SDS011;11564;50.920;11.612;2022-08-01T00:56:21;4.00;;;3.70;;
22794;SDS011;11564;50.920;11.612;2022-08-01T00:58:48;4.07;;;3.70;;
22794;SDS011;11564;50.920;11.612;2022-08-01T01:01:14;3.80;;;3.40;;
22794;SDS011;11564;50.920;11.612;2022-08-01T01:03:40;4.40;;;4.10;;
22794;SDS011;11564;50.920;11.612;2022-08-01T01:08:54;5.90;;;4.07;;
22794;SDS011;11564;50.920;11.612;2022-08-01T01:11:48;6.20;;;3.80;;
22794;SDS011;11564;50.920;11.612;2022-08-01T01:14:47;5.47;;;4.10;;
22794;SDS011;11564;50.920;11.612;2022-08-01T01:17:46;4.90;;;4.00;;
22794;SDS011;11564;50.920;11.612;2022-08-01T01:20:18;4.40;;;4.10;;
22794;SDS011;11564;50.920;11.612;2022-08-01T01:25:24;5.80;;;4.23;;
22794;SDS011;11564;50.920;11.612;2022-08-01T01:30:39;4.37;;;4.07;;
22794;SDS011;11564;50.920;11.612;2022-08-01T01:33:08;4.60;;;4.10;;
22794;SDS011;11564;50.920;11.612;2022-08-01T01:35:37;4.90;;;3.90;;
22794;SDS011;11564;50.920;11.612;2022-08-01T01:38:09;4.30;;;4.00;;
22794;SDS011;11564;50.920;11.612;2022-08-01T01:40:39;3.87;;;3.57;;
22794;SDS011;11564;50.920;11.612;2022-08-01T01:43:07;4.40;;;4.10;;
22794;SDS011;11564;50.920;11.612;2022-08-01T01:45:36;4.43;;;3.90;;
22794;SDS011;11564;50.920;11.612;2022-08-01T01:48:03;4.40;;;4.10;;
22794;SDS011;11564;50.920;11.612;2022-08-01T01:50:31;4.10;;;3.90;;
22794;SDS011;11564;50.920;11.612;2022-08-01T01:52:58;3.97;;;3.70;;
22794;SDS011;11564;50.920;11.612;2022-08-01T01:55:26;5.60;;;4.27;;
22794;SDS011;11564;50.920;11.612;2022-08-01T01:57:53;6.10;;;3.80;;
22794;SDS011;11564;50.920;11.612;2022-08-01T02:00:20;4.90;;;4.27;;
22794;SDS011;11564;50.920;11.612;2022-08-01T02:02:47;4.77;;;4.27;;
22794;SDS011;11564;50.920;11.612;2022-08-01T02:05:14;4.50;;;4.10;;
22794;SDS011;11564;50.920;11.612;2022-08-01T02:07:40;5.33;;;3.40;;
22794;SDS011;11564;50.920;11.612;2022-08-01T02:10:07;4.20;;;3.50;;
22794;SDS011;11564;50.920;11.612;2022-08-01T02:12:36;3.80;;;3.50;;
22794;SDS011;11564;50.920;11.612;2022-08-01T02:15:05;4.17;;;3.77;;
22794;SDS011;11564;50.920;11.612;2022-08-01T02:17:32;3.67;;;3.47;;
22794;SDS011;11564;50.920;11.612;2022-08-01T02:20:04;3.53;;;3.33;;
22794;SDS011;11564;50.920;11.612;2022-08-01T02:22:32;4.07;;;3.63;;
22794;SDS011;11564;50.920;11.612;2022-08-01T02:28:07;3.50;;;3.30;;
22794;SDS011;11564;50.920;11.612;2022-08-01T02:30:47;3.33;;;3.13;;
22794;SDS011;11564;50.920;11.612;2022-08-01T02:33:15;3.87;;;3.10;;
22794;SDS011;11564;50.920;11.612;2022-08-01T02:35:49;3.40;;;3.10;;
22794;SDS011;11564;50.920;11.612;2022-08-01T02:38:16;3.80;;;3.50;;
22794;SDS011;11564;50.920;11.612;2022-08-01T02:40:45;3.73;;;3.53;;
22794;SDS011;11564;50.920;11.612;2022-08-01T02:43:13;3.10;;;3.00;;
22794;SDS011;11564;50.920;11.612;2022-08-01T02:45:43;3.00;;;2.80;;
22794;SDS011;11564;50.920;11.612;2022-08-01T02:48:13;4.23;;;3.87;;
22794;SDS011;11564;50.920;11.612;2022-08-01T02:50:42;3.70;;;3.30;;
22794;SDS011;11564;50.920;11.612;2022-08-01T02:53:12;5.63;;;3.40;;
22794;SDS011;11564;50.920;11.612;2022-08-01T02:55:39;3.00;;;2.90;;
22794;SDS011;11564;50.920;11.612;2022-08-01T02:58:07;3.90;;;3.60;;
22794;SDS011;11564;50.920;11.612;2022-08-01T03:00:35;2.83;;;2.73;;
22794;SDS011;11564;50.920;11.612;2022-08-01T03:03:02;3.30;;;3.20;;
22794;SDS011;11564;50.920;11.612;2022-08-01T03:05:30;3.20;;;2.90;;
22794;SDS011;11564;50.920;11.612;2022-08-01T03:07:57;6.70;;;3.00;;
22794;SDS011;11564;50.920;11.612;2022-08-01T03:10:26;3.40;;;3.07;;
22794;SDS011;11564;50.920;11.612;2022-08-01T03:12:53;3.20;;;3.00;;
22794;SDS011;11564;50.920;11.612;2022-08-01T03:15:20;3.00;;;2.80;;
22794;SDS011;11564;50.920;11.612;2022-08-01T03:17:50;2.30;;;2.20;;
22794;SDS011;11564;50.920;11.612;2022-08-01T03:20:17;2.80;;;2.60;;
22794;SDS011;11564;50.920;11.612;2022-08-01T03:22:45;2.70;;;2.50;;
22794;SDS011;11564;50.920;11.612;2022-08-01T03:25:12;2.40;;;2.30;;
22794;SDS011;11564;50.920;11.612;2022-08-01T03:27:40;3.53;;;2.10;;
22794;SDS011;11564;50.920;11.612;2022-08-01T03:30:08;2.70;;;2.60;;
22794;SDS011;11564;50.920;11.612;2022-08-01T03:32:35;2.77;;;2.30;;
22794;SDS011;11564;50.920;11.612;2022-08-01T03:35:01;2.47;;;2.37;;
22794;SDS011;11564;50.920;11.612;2022-08-01T03:37:27;2.40;;;2.20;;
22794;SDS011;11564;50.920;11.612;2022-08-01T03:39:58;2.03;;;1.93;;
22794;SDS011;11564;50.920;11.612;2022-08-01T03:42:32;10.53;;;1.63;;
22794;SDS011;11564;50.920;11.612;2022-08-01T03:45:06;3.43;;;2.57;;
22794;SDS011;11564;50.920;11.612;2022-08-01T03:47:35;2.47;;;2.27;;
22794;SDS011;11564;50.920;11.612;2022-08-01T03:50:02;1.83;;;1.73;;
22794;SDS011;11564;50.920;11.612;2022-08-01T03:52:29;2.33;;;2.20;;
22794;SDS011;11564;50.920;11.612;2022-08-01T03:54:58;2.60;;;2.40;;
22794;SDS011;11564;50.920;11.612;2022-08-01T03:57:28;3.73;;;1.97;;
22794;SDS011;11564;50.920;11.612;2022-08-01T03:59:55;2.50;;;2.40;;
22794;SDS011;11564;50.920;11.612;2022-08-01T04:02:25;2.87;;;2.23;;
22794;SDS011;11564;50.920;11.612;2022-08-01T04:04:52;2.40;;;2.00;;
22794;SDS011;11564;50.920;11.612;2022-08-01T04:07:28;2.50;;;2.40;;
22794;SDS011;11564;50.920;11.612;2022-08-01T04:10:00;3.37;;;2.27;;
22794;SDS011;11564;50.920;11.612;2022-08-01T04:12:26;2.23;;;2.00;;
22794;SDS011;11564;50.920;11.612;2022-08-01T04:14:52;2.70;;;2.47;;
22794;SDS011;11564;50.920;11.612;2022-08-01T04:17:18;2.10;;;2.00;;
22794;SDS011;11564;50.920;11.612;2022-08-01T04:19:44;2.50;;;2.30;;
22794;SDS011;11564;50.920;11.612;2022-08-01T04:22:11;2.43;;;2.33;;
22794;SDS011;11564;50.920;11.612;2022-08-01T04:24:38;2.00;;;1.90;;
22794;SDS011;11564;50.920;11.612;2022-08-01T04:27:08;3.33;;;2.57;;
22794;SDS011;11564;50.920;11.612;2022-08-01T04:29:38;2.77;;;2.57;;
22794;SDS011;11564;50.920;11.612;2022-08-01T04:32:05;3.30;;;2.37;;
22794;SDS011;11564;50.920;11.612;2022-08-01T04:34:34;2.63;;;2.53;;
22794;SDS011;11564;50.920;11.612;2022-08-01T04:37:02;2.37;;;2.27;;
22794;SDS011;11564;50.920;11.612;2022-08-01T04:39:30;2.33;;;2.23;;
22794;SDS011;11564;50.920;11.612;2022-08-01T04:41:59;2.77;;;2.57;;
22794;SDS011;11564;50.920;11.612;2022-08-01T04:44:28;1.97;;;1.80;;
22794;SDS011;11564;50.920;11.612;2022-08-01T04:46:54;2.50;;;2.27;;
22794;SDS011;11564;50.920;11.612;2022-08-01T04:49:21;2.30;;;2.10;;
22794;SDS011;11564;50.920;11.612;2022-08-01T04:51:54;1.80;;;1.70;;
22794;SDS011;11564;50.920;11.612;2022-08-01T04:54:25;2.17;;;1.97;;
22794;SDS011;11564;50.920;11.612;2022-08-01T04:56:51;2.70;;;2.50;;
22794;SDS011;11564;50.920;11.612;2022-08-01T04:59:18;2.30;;;2.20;;
22794;SDS011;11564;50.920;11.612;2022-08-01T05:02:03;2.60;;;2.40;;
22794;SDS011;11564;50.920;11.612;2022-08-01T05:04:29;3.27;;;2.47;;
22794;SDS011;11564;50.920;11.612;2022-08-01T05:06:54;11.30;;;2.80;;
22794;SDS011;11564;50.920;11.612;2022-08-01T05:09:20;2.63;;;2.10;;
22794;SDS011;11564;50.920;11.612;2022-08-01T05:11:45;2.40;;;2.30;;
22794;SDS011;11564;50.920;11.612;2022-08-01T05:14:11;3.70;;;2.40;;
22794;SDS011;11564;50.920;11.612;2022-08-01T05:16:36;2.93;;;2.20;;
22794;SDS011;11564;50.920;11.612;2022-08-01T05:19:02;2.13;;;2.03;;
22794;SDS011;11564;50.920;11.612;2022-08-01T05:21:27;1.63;;;1.53;;
22794;SDS011;11564;50.920;11.612;2022-08-01T05:23:53;3.13;;;2.80;;
22794;SDS011;11564;50.920;11.612;2022-08-01T05:26:19;6.20;;;2.70;;
22794;SDS011;11564;50.920;11.612;2022-08-01T05:28:44;2.80;;;2.23;;
22794;SDS011;11564;50.920;11.612;2022-08-01T05:31:10;5.07;;;1.87;;
22794;SDS011;11564;50.920;11.612;2022-08-01T05:33:35;3.80;;;2.07;;
22794;SDS011;11564;50.920;11.612;2022-08-01T05:36:01;1.70;;;1.60;;
22794;SDS011;11564;50.920;11.612;2022-08-01T05:38:27;2.00;;;1.83;;
22794;SDS011;11564;50.920;11.612;2022-08-01T05:40:52;8.20;;;2.53;;
22794;SDS011;11564;50.920;11.612;2022-08-01T05:43:18;3.20;;;2.10;;
22794;SDS011;11564;50.920;11.612;2022-08-01T05:45:43;2.00;;;1.90;;
22794;SDS011;11564;50.920;11.612;2022-08-01T05:48:10;2.63;;;2.43;;
22794;SDS011;11564;50.920;11.612;2022-08-01T05:50:36;7.57;;;3.20;;
22794;SDS011;11564;50.920;11.612;2022-08-01T05:53:02;3.53;;;2.27;;
22794;SDS011;11564;50.920;11.612;2022-08-01T05:55:28;2.87;;;2.10;;
22794;SDS011;11564;50.920;11.612;2022-08-01T05:57:53;2.30;;;1.50;;
22794;SDS011;11564;50.920;11.612;2022-08-01T06:00:19;6.90;;;2.13;;
22794;SDS011;11564;50.920;11.612;2022-08-01T06:02:45;2.37;;;2.17;;
22794;SDS011;11564;50.920;11.612;2022-08-01T06:05:10;2.20;;;2.10;;
22794;SDS011;11564;50.920;11.612;2022-08-01T06:07:36;2.17;;;2.07;;
22794;SDS011;11564;50.920;11.612;2022-08-01T06:10:03;1.67;;;1.57;;
22794;SDS011;11564;50.920;11.612;2022-08-01T06:12:32;2.30;;;2.20;;
22794;SDS011;11564;50.920;11.612;2022-08-01T06:14:58;2.63;;;2.17;;
22794;SDS011;11564;50.920;11.612;2022-08-01T06:17:23;2.60;;;2.10;;
22794;SDS011;11564;50.920;11.612;2022-08-01T06:19:49;5.50;;;2.67;;
22794;SDS011;11564;50.920;11.612;2022-08-01T06:22:15;2.40;;;2.27;;
22794;SDS011;11564;50.920;11.612;2022-08-01T06:24:40;2.13;;;2.00;;
22794;SDS011;11564;50.920;11.612;2022-08-01T06:27:06;4.70;;;2.23;;
22794;SDS011;11564;50.920;11.612;2022-08-01T06:29:31;4.20;;;2.60;;
22794;SDS011;11564;50.920;11.612;2022-08-01T06:31:57;2.30;;;1.87;;
22794;SDS011;11564;50.920;11.612;2022-08-01T06:34:23;4.70;;;2.30;;
22794;SDS011;11564;50.920;11.612;2022-08-01T06:36:49;1.90;;;1.70;;
22794;SDS011;11564;50.920;11.612;2022-08-01T06:39:14;6.87;;;2.03;;
22794;SDS011;11564;50.920;11.612;2022-08-01T06:41:40;2.13;;;1.93;;
22794;SDS011;11564;50.920;11.612;2022-08-01T06:44:11;1.90;;;1.80;;
22794;SDS011;11564;50.920;11.612;2022-08-01T06:46:37;2.00;;;1.90;;
22794;SDS011;11564;50.920;11.612;2022-08-01T06:49:03;18.87;;;2.20;;
22794;SDS011;11564;50.920;11.612;2022-08-01T06:51:29;2.33;;;2.13;;
22794;SDS011;11564;50.920;11.612;2022-08-01T06:53:55;2.35;;;2.20;;
22794;SDS011;11564;50.920;11.612;2022-08-01T06:56:20;1.47;;;1.00;;
22794;SDS011;11564;50.920;11.612;2022-08-01T06:58:46;1.00;;;1.00;;
22794;SDS011;11564;50.920;11.612;2022-08-01T07:01:12;1.23;;;1.13;;
22794;SDS011;11564;50.920;11.612;2022-08-01T07:03:38;1.40;;;1.30;;
22794;SDS011;11564;50.920;11.612;2022-08-01T07:06:03;1.50;;;1.40;;
